Santa Rita de Caldas, Brazil
Current Conditions -  °F | °C
As of 2:00 PM on Thursday 30 Oct 2014 (Local Time) from SBYS Reporting Station
Broken Clouds Broken Clouds  
Wind Chill: 93°   Ceiling: 4500
Heat Index: 93°   Visibility: 6mi
Dew Point: 52°   Wind: 14mph
Humidity: 24%   Direction: 330°NNW
Pressure: 29.85"   Gusts: 25mph
Location:  22.03°S, 46.34°W
Report Text: SBYS 301600Z 33012G22KT 9999 BKN045 34/11 Q1011
Loading
Personal Weather Stations






























Interactive Weather Map
Tropical Storm Tracking
New forecast layout! Learn more

10-Day Weather Forecast

Advertisements
Track Severe Weather on mobile